createdAt,value
2023-05-18T00:00:02.791Z,96176.00
2023-05-18T00:05:34.554Z,96173.00
2023-05-18T00:11:03.867Z,96177.00
2023-05-18T00:16:32.088Z,96162.00
2023-05-18T00:22:02.385Z,96165.00
2023-05-18T00:27:32.798Z,96161.00
2023-05-18T00:33:01.071Z,96154.00
2023-05-18T00:38:29.210Z,96157.00
2023-05-18T00:43:58.222Z,96154.00
2023-05-18T00:49:26.897Z,96158.00
2023-05-18T00:54:55.069Z,96158.00
2023-05-18T01:00:24.655Z,96155.00
2023-05-18T01:05:58.102Z,96155.00
2023-05-18T01:11:53.779Z,96147.00
2023-05-18T01:17:52.992Z,96157.00
2023-05-18T01:23:43.001Z,96139.00
2023-05-18T01:29:14.277Z,96146.00
2023-05-18T01:34:43.040Z,96141.00
2023-05-18T01:40:11.764Z,96135.00
2023-05-18T01:45:44.949Z,96130.00
2023-05-18T01:51:14.960Z,96132.00
2023-05-18T01:56:45.067Z,96126.00
2023-05-18T02:02:14.556Z,96129.00
2023-05-18T02:07:47.504Z,96120.00
2023-05-18T02:13:16.451Z,96114.00
2023-05-18T02:18:44.987Z,96113.00
2023-05-18T02:24:15.418Z,96116.00
2023-05-18T02:29:43.533Z,96123.00
2023-05-18T02:35:11.761Z,96115.00
2023-05-18T02:40:39.961Z,96112.00
2023-05-18T02:46:08.440Z,96114.00
2023-05-18T02:51:37.071Z,96104.00
2023-05-18T02:57:05.703Z,96101.00
2023-05-18T03:02:48.713Z,96105.00
2023-05-18T03:08:18.404Z,96098.00
2023-05-18T03:13:47.762Z,96097.00
2023-05-18T03:19:16.647Z,96094.00
2023-05-18T03:24:45.249Z,96101.00
2023-05-18T03:30:16.944Z,96102.00
2023-05-18T03:35:47.768Z,96095.00
2023-05-18T03:41:17.158Z,96107.00
2023-05-18T03:46:45.641Z,96113.00
2023-05-18T03:52:15.558Z,96106.00
2023-05-18T03:57:43.826Z,96107.00
2023-05-18T04:03:14.923Z,96116.00
2023-05-18T04:08:46.176Z,96103.00
2023-05-18T04:14:14.402Z,96111.00
2023-05-18T04:19:42.617Z,96115.00
2023-05-18T04:25:11.792Z,96113.00
2023-05-18T04:30:40.094Z,96121.00
2023-05-18T04:36:09.654Z,96117.00
2023-05-18T04:41:38.509Z,96126.00
2023-05-18T04:47:08.696Z,96128.00
2023-05-18T04:52:38.027Z,96135.00
2023-05-18T04:58:06.501Z,96139.00
2023-05-18T05:03:35.204Z,96144.00
2023-05-18T05:09:03.781Z,96137.00
2023-05-18T05:14:32.024Z,96149.00
2023-05-18T05:20:00.280Z,96142.00
2023-05-18T05:25:29.295Z,96145.00
2023-05-18T05:30:57.628Z,96143.00
2023-05-18T05:36:26.229Z,96144.00
2023-05-18T05:41:55.901Z,96138.00
2023-05-18T05:47:24.216Z,96135.00
2023-05-18T05:52:52.856Z,96146.00
2023-05-18T05:58:21.820Z,96142.00
2023-05-18T06:03:54.854Z,96147.00
2023-05-18T06:09:22.847Z,96144.00
2023-05-18T06:14:57.490Z,96150.00
2023-05-18T06:20:26.488Z,96153.00
2023-05-18T06:25:56.000Z,96154.00
2023-05-18T06:31:42.738Z,96150.00
2023-05-18T06:37:21.449Z,96153.00
2023-05-18T06:42:49.654Z,96159.00
2023-05-18T06:48:47.260Z,96156.00
2023-05-18T06:54:16.563Z,96149.00
2023-05-18T06:59:45.557Z,96162.00
2023-05-18T07:05:15.093Z,96160.00
2023-05-18T07:10:43.334Z,96155.00
2023-05-18T07:16:11.603Z,96160.00
2023-05-18T07:21:39.805Z,96156.00
2023-05-18T07:27:07.936Z,96155.00
2023-05-18T07:32:36.248Z,96151.00
2023-05-18T07:38:04.513Z,96163.00
2023-05-18T07:43:33.734Z,96151.00
2023-05-18T07:49:01.875Z,96162.00
2023-05-18T07:54:29.980Z,96156.00
2023-05-18T07:59:58.122Z,96166.00
2023-05-18T08:05:26.519Z,96159.00
2023-05-18T08:10:54.737Z,96164.00
2023-05-18T08:16:27.029Z,96165.00
2023-05-18T08:21:55.261Z,96183.00
2023-05-18T08:27:23.414Z,96172.00
2023-05-18T08:32:51.656Z,96170.00
2023-05-18T08:38:19.893Z,96166.00
2023-05-18T08:43:53.849Z,96154.00
2023-05-18T08:49:22.319Z,96163.00
2023-05-18T08:54:52.583Z,96160.00
2023-05-18T09:00:22.908Z,96158.00
2023-05-18T09:05:53.517Z,96142.00
2023-05-18T09:11:25.521Z,96153.00
2023-05-18T09:16:56.826Z,96160.00
2023-05-18T09:22:25.026Z,96157.00
2023-05-18T09:27:53.450Z,96163.00
2023-05-18T09:33:22.079Z,96165.00
2023-05-18T09:38:53.176Z,96163.00
2023-05-18T09:44:32.756Z,96158.00
2023-05-18T09:50:01.655Z,96161.00
2023-05-18T09:55:30.024Z,96170.00
2023-05-18T10:01:02.517Z,96168.00
2023-05-18T10:06:31.748Z,96172.00
2023-05-18T10:12:01.630Z,96167.00
2023-05-18T10:17:30.929Z,96165.00
2023-05-18T10:23:02.518Z,96172.00
2023-05-18T10:28:44.589Z,96172.00
2023-05-18T10:34:12.972Z,96176.00
2023-05-18T10:39:45.827Z,96162.00
2023-05-18T10:45:15.701Z,96166.00
2023-05-18T10:50:44.281Z,96164.00
2023-05-18T10:56:12.579Z,96167.00
2023-05-18T11:01:42.263Z,96161.00
2023-05-18T11:07:14.584Z,96163.00
2023-05-18T11:12:43.307Z,96160.00
2023-05-18T11:18:15.242Z,96154.00
2023-05-18T11:23:43.454Z,96167.00
2023-05-18T11:29:25.269Z,96165.00
2023-05-18T11:34:55.119Z,96165.00
2023-05-18T11:40:47.007Z,96166.00
2023-05-18T11:46:18.862Z,96165.00
2023-05-18T11:52:21.420Z,96171.00
2023-05-18T11:57:54.451Z,96176.00
2023-05-18T12:03:28.530Z,96163.00
2023-05-18T12:08:56.818Z,96159.00
2023-05-18T12:14:25.188Z,96151.00
2023-05-18T12:19:53.686Z,96157.00
2023-05-18T12:25:23.952Z,96149.00
2023-05-18T12:30:56.932Z,96158.00
2023-05-18T12:36:27.463Z,96157.00
2023-05-18T12:42:09.609Z,96148.00
2023-05-18T12:47:42.340Z,96162.00
2023-05-18T12:53:10.581Z,96155.00
2023-05-18T12:58:40.435Z,96149.00
2023-05-18T13:04:12.290Z,96147.00
2023-05-18T13:09:46.773Z,96150.00
2023-05-18T13:15:16.745Z,96140.00
2023-05-18T13:20:48.386Z,96135.00
2023-05-18T13:26:19.178Z,96126.00
2023-05-18T13:31:47.484Z,96137.00
2023-05-18T13:37:16.311Z,96132.00
2023-05-18T13:42:46.718Z,96129.00
2023-05-18T13:48:15.162Z,96115.00
2023-05-18T13:53:43.323Z,96111.00
2023-05-18T13:59:12.654Z,96114.00
2023-05-18T14:04:41.122Z,96109.00
2023-05-18T14:10:10.718Z,96098.00
2023-05-18T14:15:39.051Z,96100.00
2023-05-18T14:21:07.177Z,96097.00
2023-05-18T14:26:36.597Z,96102.00
2023-05-18T14:32:07.255Z,96091.00
2023-05-18T14:37:45.314Z,96094.00
2023-05-18T14:43:13.480Z,96081.00
2023-05-18T14:48:42.714Z,96082.00
2023-05-18T14:54:10.937Z,96083.00
2023-05-18T14:59:39.250Z,96084.00
2023-05-18T15:05:11.490Z,96091.00
2023-05-18T15:10:40.841Z,96091.00
2023-05-18T15:16:09.058Z,96092.00
2023-05-18T15:21:37.283Z,96089.00
2023-05-18T15:27:06.264Z,96096.00
2023-05-18T15:32:34.503Z,96104.00
2023-05-18T15:38:03.180Z,96104.00
2023-05-18T15:43:31.701Z,96098.00
2023-05-18T15:48:59.934Z,96107.00
2023-05-18T15:54:28.272Z,96094.00
2023-05-18T15:59:56.655Z,96096.00
2023-05-18T16:05:25.049Z,96098.00
2023-05-18T16:10:55.851Z,96097.00
2023-05-18T16:16:26.660Z,96095.00
2023-05-18T16:21:54.977Z,96090.00
2023-05-18T16:27:23.163Z,96094.00
2023-05-18T16:32:51.480Z,96090.00
2023-05-18T16:38:19.704Z,96101.00
2023-05-18T16:43:48.051Z,96104.00
2023-05-18T16:49:16.594Z,96099.00
2023-05-18T16:54:45.709Z,96110.00
2023-05-18T17:00:14.668Z,96122.00
2023-05-18T17:05:43.254Z,96114.00
2023-05-18T17:11:11.386Z,96126.00
2023-05-18T17:16:41.161Z,96122.00
2023-05-18T17:22:09.645Z,96114.00
2023-05-18T17:27:37.747Z,96112.00
2023-05-18T17:33:06.359Z,96112.00
2023-05-18T17:38:34.629Z,96114.00
2023-05-18T17:44:03.002Z,96108.00
2023-05-18T17:49:32.638Z,96117.00
2023-05-18T17:55:01.630Z,96110.00
2023-05-18T18:00:31.473Z,96115.00
2023-05-18T18:06:00.050Z,96125.00
2023-05-18T18:11:28.338Z,96130.00
2023-05-18T18:16:59.093Z,96132.00
2023-05-18T18:22:28.836Z,96134.00
2023-05-18T18:27:58.301Z,96135.00
2023-05-18T18:33:26.711Z,96141.00
2023-05-18T18:38:54.821Z,96130.00
2023-05-18T18:44:23.105Z,96117.00
2023-05-18T18:49:51.315Z,96130.00
2023-05-18T18:55:20.530Z,96131.00
2023-05-18T19:00:48.736Z,96138.00
2023-05-18T19:06:17.590Z,96147.00
2023-05-18T19:11:47.084Z,96146.00
2023-05-18T19:17:15.677Z,96155.00
2023-05-18T19:22:44.027Z,96159.00
2023-05-18T19:28:12.492Z,96166.00
2023-05-18T19:33:40.721Z,96174.00
2023-05-18T19:39:09.865Z,96182.00
2023-05-18T19:44:38.135Z,96186.00
2023-05-18T19:50:07.174Z,96189.00
2023-05-18T19:55:35.757Z,96189.00
2023-05-18T20:01:04.419Z,96179.00
2023-05-18T20:06:32.686Z,96191.00
2023-05-18T20:12:01.131Z,96189.00
2023-05-18T20:17:29.555Z,96195.00
2023-05-18T20:22:57.905Z,96193.00
2023-05-18T20:28:27.247Z,96198.00
2023-05-18T20:33:57.694Z,96198.00
2023-05-18T20:39:31.848Z,96199.00
2023-05-18T20:45:00.327Z,96187.00
2023-05-18T20:50:28.621Z,96195.00
2023-05-18T20:56:01.225Z,96190.00
2023-05-18T21:01:30.773Z,96194.00
2023-05-18T21:06:58.987Z,96185.00
2023-05-18T21:12:27.174Z,96185.00
2023-05-18T21:17:55.431Z,96182.00
2023-05-18T21:23:23.616Z,96175.00
2023-05-18T21:28:52.984Z,96179.00
2023-05-18T21:34:21.226Z,96171.00
2023-05-18T21:39:49.474Z,96170.00
2023-05-18T21:45:18.361Z,96171.00
2023-05-18T21:50:48.614Z,96167.00
2023-05-18T21:56:17.853Z,96158.00
2023-05-18T22:01:48.104Z,96158.00
2023-05-18T22:07:17.380Z,96156.00
2023-05-18T22:12:45.683Z,96143.00
2023-05-18T22:18:13.890Z,96154.00
2023-05-18T22:23:42.421Z,96153.00
2023-05-18T22:29:10.875Z,96140.00
2023-05-18T22:34:39.216Z,96132.00
2023-05-18T22:40:08.358Z,96131.00
2023-05-18T22:45:36.636Z,96127.00
2023-05-18T22:51:06.469Z,96131.00
2023-05-18T22:56:37.163Z,96139.00
2023-05-18T23:02:06.562Z,96141.00
2023-05-18T23:07:37.873Z,96138.00
2023-05-18T23:13:06.116Z,96131.00
2023-05-18T23:18:34.424Z,96129.00
2023-05-18T23:24:05.104Z,96129.00
2023-05-18T23:29:37.462Z,96127.00
2023-05-18T23:35:07.218Z,96122.00
2023-05-18T23:40:35.751Z,96126.00
2023-05-18T23:46:05.112Z,96125.00
2023-05-18T23:51:36.414Z,96118.00
2023-05-18T23:57:06.191Z,96119.00
